Mikasa — JD3633 — position and weather

sailwx.info

Track history (hours):
 
Tides and Currents Weather Stations Pressure Air Temp Water Temp Dewpoint Dewpoint Depression Visibility Wind Speed Wind Dir Waves Ship Positions

Mikasa

Last reported at 2017-Sep-14 03:49 UTC. Time now 2017-Sep-20 18:12 UTC.
Position N 34°37' E 134°57'.

Length 64 m; draft 4 m.

Type: Tanker. MMSI: 431005138.

Date/timePositionNaut miles runAvg speedWind from/ knotsBaromVisibWave heightAir tempDewpointWater temp
2017-Sep-14 03:49N 34°37' E 134°57'613.5
2017-Sep-14 03:24N 34°36' E 135°03'511.8
2017-Sep-14 03:00N 34°36' E 135°09'612.6
2017-Sep-14 02:30N 34°35' E 135°17'5 9.5
2017-Sep-14 01:59N 34°36' E 135°23'510.7
2017-Sep-14 01:30N 34°41' E 135°24'0 0.1
2017-Sep-14 00:56N 34°41' E 135°24'0 0.0
2017-Sep-14 00:30N 34°41' E 135°24'0 0.0
2017-Sep-14 00:00N 34°41' E 135°24'0 0.0
2017-Sep-13 23:30N 34°41' E 135°24'0 0.0
2017-Sep-13 23:00N 34°41' E 135°24'2 3.3
2017-Sep-13 22:30N 34°40' E 135°23'0 0.0
2017-Sep-13 22:00N 34°40' E 135°23'0 0.0
2017-Sep-13 21:30N 34°40' E 135°23'0 0.0
2017-Sep-13 21:00N 34°40' E 135°23'0 0.0
2017-Sep-13 20:30N 34°40' E 135°23'0 0.0
2017-Sep-13 20:00N 34°40' E 135°23'0 0.0
2017-Sep-13 19:30N 34°40' E 135°23'0 0.0
2017-Sep-13 19:00N 34°40' E 135°23'0 0.0
2017-Sep-13 18:30N 34°40' E 135°23'0 0.0
2017-Sep-13 18:00N 34°40' E 135°23'0 0.0
2017-Sep-13 17:30N 34°40' E 135°23'0 0.0
2017-Sep-13 17:00N 34°40' E 135°23'0 0.0
2017-Sep-13 16:30N 34°40' E 135°23'0 0.0
2017-Sep-13 16:00N 34°40' E 135°23'0 0.0
2017-Sep-13 15:30N 34°40' E 135°23'0 0.0
2017-Sep-13 15:00N 34°40' E 135°23'0 0.0
2017-Sep-13 14:30N 34°40' E 135°23'0 0.0
2017-Sep-13 14:00N 34°40' E 135°23'0 0.0
2017-Sep-13 13:30N 34°40' E 135°23'0 0.0
2017-Sep-13 13:00N 34°40' E 135°23'0 0.0
2017-Sep-13 12:30N 34°40' E 135°23'0 0.0
2017-Sep-13 12:00N 34°40' E 135°23'0 0.0
2017-Sep-13 11:30N 34°40' E 135°23'0 0.2
2017-Sep-13 11:00N 34°40' E 135°23'0 0.0
2017-Sep-13 10:30N 34°40' E 135°23'0 0.0
2017-Sep-13 10:00N 34°40' E 135°23'1 1.0
2017-Sep-13 09:30N 34°40' E 135°22'611.6
2017-Sep-13 08:59N 34°35' E 135°18'611.7
2017-Sep-13 08:29N 34°30' E 135°14'611.9
2017-Sep-13 08:00N 34°25' E 135°10'811.7
2017-Sep-13 07:19N 34°19' E 135°04'411.3
2017-Sep-13 07:00N 34°15' E 135°03'611.6
2017-Sep-13 06:31N 34°10' E 135°06'4 5.6
2017-Sep-13 05:52N 34°07' E 135°08'0 0.0
2017-Sep-13 05:26N 34°07' E 135°08'0 0.0
2017-Sep-13 04:45N 34°07' E 135°08'0 0.0
2017-Sep-13 03:35N 34°07' E 135°08'0 1.4
2017-Sep-13 03:27N 34°07' E 135°08'0 1.0
2017-Sep-13 02:59N 34°07' E 135°08'0 0.0
2017-Sep-13 02:30N 34°07' E 135°08'0 0.0
2017-Sep-13 02:00N 34°07' E 135°08'0 0.0
2017-Sep-13 01:28N 34°07' E 135°08'0 0.0
2017-Sep-13 00:59N 34°07' E 135°08'1 1.7
2017-Sep-13 00:30N 34°08' E 135°07'612.3
2017-Sep-13 00:00N 34°14' E 135°04'1011.5
2017-Sep-12 23:08N 34°23' E 135°09'313.4
2017-Sep-12 22:54N 34°25' E 135°11'513.1
2017-Sep-12 22:30N 34°29' E 135°16'712.6
2017-Sep-12 21:58N 34°32' E 135°23'2 0.1
2017-Sep-12 01:47N 34°31' E 135°24'310.5
2017-Sep-12 01:30N 34°34' E 135°23'611.9
2017-Sep-12 01:00N 34°39' E 135°22'2 4.4
2017-Sep-12 00:30N 34°41' E 135°24'0 0.0
2017-Sep-12 00:00N 34°41' E 135°24'0 0.0
2017-Sep-11 23:30N 34°41' E 135°24'0 0.0
2017-Sep-11 23:00N 34°41' E 135°24'1 2.9
2017-Sep-11 22:30N 34°40' E 135°23'0 0.0
2017-Sep-11 22:00N 34°40' E 135°23'0 0.0
2017-Sep-11 21:30N 34°40' E 135°23'0 0.0
2017-Sep-11 21:00N 34°40' E 135°23'0 0.0
2017-Sep-11 20:30N 34°40' E 135°23'0 0.0
2017-Sep-11 20:00N 34°40' E 135°23'0 0.0
2017-Sep-11 19:30N 34°40' E 135°23'0 0.1
2017-Sep-11 19:00N 34°40' E 135°23'0 0.1
2017-Sep-11 18:30N 34°40' E 135°23'0 0.0
2017-Sep-11 18:00N 34°40' E 135°23'0 0.0
2017-Sep-11 17:30N 34°40' E 135°23'0 0.0
2017-Sep-11 17:00N 34°40' E 135°23'0 0.0
2017-Sep-11 16:30N 34°40' E 135°23'0 0.0
2017-Sep-11 16:00N 34°40' E 135°23'0 0.1
2017-Sep-11 15:30N 34°40' E 135°23'0 0.1
2017-Sep-11 15:00N 34°40' E 135°23'0 0.0
2017-Sep-11 14:30N 34°40' E 135°23'0 0.3
2017-Sep-11 14:01N 34°40' E 135°23'611.4
2017-Sep-11 13:30N 34°38' E 135°16'611.8
2017-Sep-11 13:00N 34°36' E 135°10'611.1
2017-Sep-11 12:30N 34°36' E 135°03'5 9.5
2017-Sep-11 12:00N 34°36' E 134°57'  
2017-Sep-08 06:00N 34°37' E 134°57'6 8.8
2017-Sep-08 05:21N 34°36' E 135°04'411.0
2017-Sep-08 05:00N 34°37' E 135°08'612.7
2017-Sep-08 04:30N 34°38' E 135°16'613.0
2017-Sep-08 04:00N 34°41' E 135°23'1 0.9
2017-Sep-08 02:54N 34°41' E 135°24'0 0.0
2017-Sep-08 02:30N 34°41' E 135°24'4 8.8
2017-Sep-08 02:00N 34°39' E 135°19'611.6
2017-Sep-08 01:31N 34°38' E 135°13'4 7.1
2017-Sep-08 01:00N 34°39' E 135°08'0 0.0
2017-Sep-08 00:30N 34°39' E 135°08'0 0.1
2017-Sep-08 00:00N 34°38' E 135°08'0 0.8
2017-Sep-07 23:30N 34°38' E 135°08'0 0.0
2017-Sep-07 23:00N 34°38' E 135°08'0 0.0
2017-Sep-07 22:30N 34°38' E 135°08'0 0.0
2017-Sep-07 22:00N 34°38' E 135°08'0 0.1
2017-Sep-07 21:30N 34°38' E 135°08'0 0.1
2017-Sep-07 21:00N 34°38' E 135°08'0 0.0
2017-Sep-07 20:30N 34°38' E 135°08'0 0.1
2017-Sep-07 20:00N 34°38' E 135°08'0 0.0
2017-Sep-07 19:30N 34°38' E 135°08'0 0.0
2017-Sep-07 19:00N 34°38' E 135°08'0 0.1
2017-Sep-07 18:30N 34°38' E 135°08'0 0.0
2017-Sep-07 18:00N 34°38' E 135°08'0 0.0
2017-Sep-07 17:30N 34°38' E 135°08'0 0.0
2017-Sep-07 17:00N 34°38' E 135°08'0 0.1
2017-Sep-07 16:30N 34°38' E 135°08'0 0.1
2017-Sep-07 16:00N 34°38' E 135°08'0 0.1
2017-Sep-07 15:30N 34°38' E 135°08'0 0.0
2017-Sep-07 15:00N 34°38' E 135°08'0 0.0
2017-Sep-07 14:30N 34°38' E 135°08'0 0.1
2017-Sep-07 14:01N 34°38' E 135°08'0 0.1
2017-Sep-07 13:31N 34°38' E 135°08'0 0.0
2017-Sep-07 13:00N 34°38' E 135°08'0 0.1
2017-Sep-07 12:30N 34°38' E 135°08'0 0.0
2017-Sep-07 12:00N 34°38' E 135°08'0 0.0
2017-Sep-07 11:31N 34°38' E 135°08'3 6.2
2017-Sep-07 11:00N 34°35' E 135°06'4 8.6
2017-Sep-07 10:30N 34°37' E 135°01'3 0.1
2017-Sep-06 03:06N 34°38' E 134°58'510.3
2017-Sep-06 02:40N 34°36' E 135°03'211.2
2017-Sep-06 02:29N 34°36' E 135°06'612.7
2017-Sep-06 02:01N 34°38' E 135°13'612.9
2017-Sep-06 01:30N 34°40' E 135°20'3 6.7
2017-Sep-06 00:59N 34°41' E 135°24'0 0.0
2017-Sep-06 00:16N 34°41' E 135°24'0 0.0
2017-Sep-05 23:58N 34°41' E 135°24'0 0.0
2017-Sep-05 23:30N 34°41' E 135°24'0 0.0
2017-Sep-05 23:00N 34°41' E 135°24'1 2.7
2017-Sep-05 22:30N 34°40' E 135°23'0 0.0
2017-Sep-05 22:00N 34°40' E 135°23'0 0.0
2017-Sep-05 21:30N 34°40' E 135°23'0 0.0
2017-Sep-05 21:00N 34°40' E 135°23'0 0.0
2017-Sep-05 20:30N 34°40' E 135°23'0 0.0
2017-Sep-05 20:00N 34°40' E 135°23'0 0.0
2017-Sep-05 19:30N 34°40' E 135°23'0 0.0
2017-Sep-05 19:00N 34°40' E 135°23'0 0.0
2017-Sep-05 18:30N 34°40' E 135°23'0 0.0
2017-Sep-05 18:00N 34°40' E 135°23'0 0.0
2017-Sep-05 17:30N 34°40' E 135°23'0 0.0
2017-Sep-05 17:00N 34°40' E 135°23'0 0.0
2017-Sep-05 16:30N 34°40' E 135°23'0 0.0
2017-Sep-05 16:00N 34°40' E 135°23'0 0.0
2017-Sep-05 15:30N 34°40' E 135°23'0 0.0
2017-Sep-05 15:00N 34°40' E 135°23'0 0.0
2017-Sep-05 14:30N 34°40' E 135°23'0 0.0
2017-Sep-05 14:00N 34°40' E 135°23'0 0.0
2017-Sep-05 13:30N 34°40' E 135°23'0 0.0
2017-Sep-05 13:00N 34°40' E 135°23'0 0.1
2017-Sep-05 12:31N 34°40' E 135°23'0 0.0
2017-Sep-05 12:00N 34°40' E 135°23'0 0.0
2017-Sep-05 11:30N 34°40' E 135°23'0 0.0
2017-Sep-05 11:00N 34°40' E 135°23'0 0.0
2017-Sep-05 10:30N 34°40' E 135°23'0 0.0
2017-Sep-05 10:00N 34°40' E 135°23'0 0.0
2017-Sep-05 09:30N 34°40' E 135°23'0 0.0
2017-Sep-05 09:00N 34°40' E 135°23'0 0.0
2017-Sep-05 08:30N 34°40' E 135°23'0 0.0
2017-Sep-05 08:00N 34°40' E 135°23'0 0.0
2017-Sep-05 07:30N 34°40' E 135°23'0 0.0
2017-Sep-05 07:00N 34°40' E 135°23'2 3.2
2017-Sep-05 06:30N 34°39' E 135°22'612.0
2017-Sep-05 06:00N 34°34' E 135°18'611.8
2017-Sep-05 05:30N 34°29' E 135°13'611.4
2017-Sep-05 05:00N 34°25' E 135°09'711.4
2017-Sep-05 04:25N 34°19' E 135°05'4 9.9
2017-Sep-05 04:00N 34°15' E 135°04'612.2
2017-Sep-05 03:30N 34°10' E 135°06'3 5.5
2017-Sep-05 03:00N 34°07' E 135°07'0 0.0
2017-Sep-05 02:30N 34°07' E 135°07'0 0.0
2017-Sep-05 02:00N 34°07' E 135°07'0 0.0
2017-Sep-05 01:30N 34°07' E 135°07'0 0.1
2017-Sep-05 01:01N 34°07' E 135°07'0 0.7
2017-Sep-05 00:30N 34°07' E 135°08'4 7.2
2017-Sep-05 00:00N 34°10' E 135°05'811.5
2017-Sep-04 23:16N 34°19' E 135°04'612.7
2017-Sep-04 22:46N 34°24' E 135°09'412.7
2017-Sep-04 22:27N 34°27' E 135°12'612.7
2017-Sep-04 22:00N 34°30' E 135°18'510.3
2017-Sep-04 21:29N 34°31' E 135°24'0 0.0
2017-Sep-04 11:43N 34°31' E 135°24'0 0.0
2017-Sep-04 11:30N 34°31' E 135°24'0 0.0
2017-Sep-04 11:00N 34°31' E 135°24'0 0.1
2017-Sep-04 10:13N 34°31' E 135°24'0 0.2
2017-Sep-04 09:58N 34°31' E 135°24'0 0.0
2017-Sep-04 09:29N 34°31' E 135°24'0 0.0
2017-Sep-04 08:59N 34°31' E 135°24'0 0.0
2017-Sep-04 08:30N 34°31' E 135°24'0 0.0
2017-Sep-04 07:56N 34°31' E 135°24'  
Track history (hours):
 
Tides and Currents Weather Stations Pressure Air Temp Water Temp Dewpoint Dewpoint Depression Visibility Wind Speed Wind Dir Waves Ship Positions

Mikasa

Last reported at 2017-Sep-14 03:49 UTC. Time now 2017-Sep-20 18:12 UTC.
Position N 34°37' E 134°57'.

Length 64 m; draft 4 m.

Type: Tanker. MMSI: 431005138.

Date/timePositionNaut miles runAvg speedWind from/ knotsBaromVisibWave heightAir tempDewpointWater temp
2017-Sep-14 03:49N 34°37' E 134°57'613.5
2017-Sep-14 03:24N 34°36' E 135°03'511.8
2017-Sep-14 03:00N 34°36' E 135°09'612.6
2017-Sep-14 02:30N 34°35' E 135°17'5 9.5
2017-Sep-14 01:59N 34°36' E 135°23'510.7
2017-Sep-14 01:30N 34°41' E 135°24'0 0.1
2017-Sep-14 00:56N 34°41' E 135°24'0 0.0
2017-Sep-14 00:30N 34°41' E 135°24'0 0.0
2017-Sep-14 00:00N 34°41' E 135°24'0 0.0
2017-Sep-13 23:30N 34°41' E 135°24'0 0.0
2017-Sep-13 23:00N 34°41' E 135°24'2 3.3
2017-Sep-13 22:30N 34°40' E 135°23'0 0.0
2017-Sep-13 22:00N 34°40' E 135°23'0 0.0
2017-Sep-13 21:30N 34°40' E 135°23'0 0.0
2017-Sep-13 21:00N 34°40' E 135°23'0 0.0
2017-Sep-13 20:30N 34°40' E 135°23'0 0.0
2017-Sep-13 20:00N 34°40' E 135°23'0 0.0
2017-Sep-13 19:30N 34°40' E 135°23'0 0.0
2017-Sep-13 19:00N 34°40' E 135°23'0 0.0
2017-Sep-13 18:30N 34°40' E 135°23'0 0.0
2017-Sep-13 18:00N 34°40' E 135°23'0 0.0
2017-Sep-13 17:30N 34°40' E 135°23'0 0.0
2017-Sep-13 17:00N 34°40' E 135°23'0 0.0
2017-Sep-13 16:30N 34°40' E 135°23'0 0.0
2017-Sep-13 16:00N 34°40' E 135°23'0 0.0
2017-Sep-13 15:30N 34°40' E 135°23'0 0.0
2017-Sep-13 15:00N 34°40' E 135°23'0 0.0
2017-Sep-13 14:30N 34°40' E 135°23'0 0.0
2017-Sep-13 14:00N 34°40' E 135°23'0 0.0
2017-Sep-13 13:30N 34°40' E 135°23'0 0.0
2017-Sep-13 13:00N 34°40' E 135°23'0 0.0
2017-Sep-13 12:30N 34°40' E 135°23'0 0.0
2017-Sep-13 12:00N 34°40' E 135°23'0 0.0
2017-Sep-13 11:30N 34°40' E 135°23'0 0.2
2017-Sep-13 11:00N 34°40' E 135°23'0 0.0
2017-Sep-13 10:30N 34°40' E 135°23'0 0.0
2017-Sep-13 10:00N 34°40' E 135°23'1 1.0
2017-Sep-13 09:30N 34°40' E 135°22'611.6
2017-Sep-13 08:59N 34°35' E 135°18'611.7
2017-Sep-13 08:29N 34°30' E 135°14'611.9
2017-Sep-13 08:00N 34°25' E 135°10'811.7
2017-Sep-13 07:19N 34°19' E 135°04'411.3
2017-Sep-13 07:00N 34°15' E 135°03'611.6
2017-Sep-13 06:31N 34°10' E 135°06'4 5.6
2017-Sep-13 05:52N 34°07' E 135°08'0 0.0
2017-Sep-13 05:26N 34°07' E 135°08'0 0.0
2017-Sep-13 04:45N 34°07' E 135°08'0 0.0
2017-Sep-13 03:35N 34°07' E 135°08'0 1.4
2017-Sep-13 03:27N 34°07' E 135°08'0 1.0
2017-Sep-13 02:59N 34°07' E 135°08'0 0.0
2017-Sep-13 02:30N 34°07' E 135°08'0 0.0
2017-Sep-13 02:00N 34°07' E 135°08'0 0.0
2017-Sep-13 01:28N 34°07' E 135°08'0 0.0
2017-Sep-13 00:59N 34°07' E 135°08'1 1.7
2017-Sep-13 00:30N 34°08' E 135°07'612.3
2017-Sep-13 00:00N 34°14' E 135°04'1011.5
2017-Sep-12 23:08N 34°23' E 135°09'313.4
2017-Sep-12 22:54N 34°25' E 135°11'513.1
2017-Sep-12 22:30N 34°29' E 135°16'712.6
2017-Sep-12 21:58N 34°32' E 135°23'2 0.1
2017-Sep-12 01:47N 34°31' E 135°24'310.5
2017-Sep-12 01:30N 34°34' E 135°23'611.9
2017-Sep-12 01:00N 34°39' E 135°22'2 4.4
2017-Sep-12 00:30N 34°41' E 135°24'0 0.0
2017-Sep-12 00:00N 34°41' E 135°24'0 0.0
2017-Sep-11 23:30N 34°41' E 135°24'0 0.0
2017-Sep-11 23:00N 34°41' E 135°24'1 2.9
2017-Sep-11 22:30N 34°40' E 135°23'0 0.0
2017-Sep-11 22:00N 34°40' E 135°23'0 0.0
2017-Sep-11 21:30N 34°40' E 135°23'0 0.0
2017-Sep-11 21:00N 34°40' E 135°23'0 0.0
2017-Sep-11 20:30N 34°40' E 135°23'0 0.0
2017-Sep-11 20:00N 34°40' E 135°23'0 0.0
2017-Sep-11 19:30N 34°40' E 135°23'0 0.1
2017-Sep-11 19:00N 34°40' E 135°23'0 0.1
2017-Sep-11 18:30N 34°40' E 135°23'0 0.0
2017-Sep-11 18:00N 34°40' E 135°23'0 0.0
2017-Sep-11 17:30N 34°40' E 135°23'0 0.0
2017-Sep-11 17:00N 34°40' E 135°23'0 0.0
2017-Sep-11 16:30N 34°40' E 135°23'0 0.0
2017-Sep-11 16:00N 34°40' E 135°23'0 0.1
2017-Sep-11 15:30N 34°40' E 135°23'0 0.1
2017-Sep-11 15:00N 34°40' E 135°23'0 0.0
2017-Sep-11 14:30N 34°40' E 135°23'0 0.3
2017-Sep-11 14:01N 34°40' E 135°23'611.4
2017-Sep-11 13:30N 34°38' E 135°16'611.8
2017-Sep-11 13:00N 34°36' E 135°10'611.1
2017-Sep-11 12:30N 34°36' E 135°03'5 9.5
2017-Sep-11 12:00N 34°36' E 134°57'  
2017-Sep-08 06:00N 34°37' E 134°57'6 8.8
2017-Sep-08 05:21N 34°36' E 135°04'411.0
2017-Sep-08 05:00N 34°37' E 135°08'612.7
2017-Sep-08 04:30N 34°38' E 135°16'613.0
2017-Sep-08 04:00N 34°41' E 135°23'1 0.9
2017-Sep-08 02:54N 34°41' E 135°24'0 0.0
2017-Sep-08 02:30N 34°41' E 135°24'4 8.8
2017-Sep-08 02:00N 34°39' E 135°19'611.6
2017-Sep-08 01:31N 34°38' E 135°13'4 7.1
2017-Sep-08 01:00N 34°39' E 135°08'0 0.0
2017-Sep-08 00:30N 34°39' E 135°08'0 0.1
2017-Sep-08 00:00N 34°38' E 135°08'0 0.8
2017-Sep-07 23:30N 34°38' E 135°08'0 0.0
2017-Sep-07 23:00N 34°38' E 135°08'0 0.0
2017-Sep-07 22:30N 34°38' E 135°08'0 0.0
2017-Sep-07 22:00N 34°38' E 135°08'0 0.1
2017-Sep-07 21:30N 34°38' E 135°08'0 0.1
2017-Sep-07 21:00N 34°38' E 135°08'0 0.0
2017-Sep-07 20:30N 34°38' E 135°08'0 0.1
2017-Sep-07 20:00N 34°38' E 135°08'0 0.0
2017-Sep-07 19:30N 34°38' E 135°08'0 0.0
2017-Sep-07 19:00N 34°38' E 135°08'0 0.1
2017-Sep-07 18:30N 34°38' E 135°08'0 0.0
2017-Sep-07 18:00N 34°38' E 135°08'0 0.0
2017-Sep-07 17:30N 34°38' E 135°08'0 0.0
2017-Sep-07 17:00N 34°38' E 135°08'0 0.1
2017-Sep-07 16:30N 34°38' E 135°08'0 0.1
2017-Sep-07 16:00N 34°38' E 135°08'0 0.1
2017-Sep-07 15:30N 34°38' E 135°08'0 0.0
2017-Sep-07 15:00N 34°38' E 135°08'0 0.0
2017-Sep-07 14:30N 34°38' E 135°08'0 0.1
2017-Sep-07 14:01N 34°38' E 135°08'0 0.1
2017-Sep-07 13:31N 34°38' E 135°08'0 0.0
2017-Sep-07 13:00N 34°38' E 135°08'0 0.1
2017-Sep-07 12:30N 34°38' E 135°08'0 0.0
2017-Sep-07 12:00N 34°38' E 135°08'0 0.0
2017-Sep-07 11:31N 34°38' E 135°08'3 6.2
2017-Sep-07 11:00N 34°35' E 135°06'4 8.6
2017-Sep-07 10:30N 34°37' E 135°01'3 0.1
2017-Sep-06 03:06N 34°38' E 134°58'510.3
2017-Sep-06 02:40N 34°36' E 135°03'211.2
2017-Sep-06 02:29N 34°36' E 135°06'612.7
2017-Sep-06 02:01N 34°38' E 135°13'612.9
2017-Sep-06 01:30N 34°40' E 135°20'3 6.7
2017-Sep-06 00:59N 34°41' E 135°24'0 0.0
2017-Sep-06 00:16N 34°41' E 135°24'0 0.0
2017-Sep-05 23:58N 34°41' E 135°24'0 0.0
2017-Sep-05 23:30N 34°41' E 135°24'0 0.0
2017-Sep-05 23:00N 34°41' E 135°24'1 2.7
2017-Sep-05 22:30N 34°40' E 135°23'0 0.0
2017-Sep-05 22:00N 34°40' E 135°23'0 0.0
2017-Sep-05 21:30N 34°40' E 135°23'0 0.0
2017-Sep-05 21:00N 34°40' E 135°23'0 0.0
2017-Sep-05 20:30N 34°40' E 135°23'0 0.0
2017-Sep-05 20:00N 34°40' E 135°23'0 0.0
2017-Sep-05 19:30N 34°40' E 135°23'0 0.0
2017-Sep-05 19:00N 34°40' E 135°23'0 0.0
2017-Sep-05 18:30N 34°40' E 135°23'0 0.0
2017-Sep-05 18:00N 34°40' E 135°23'0 0.0
2017-Sep-05 17:30N 34°40' E 135°23'0 0.0
2017-Sep-05 17:00N 34°40' E 135°23'0 0.0
2017-Sep-05 16:30N 34°40' E 135°23'0 0.0
2017-Sep-05 16:00N 34°40' E 135°23'0 0.0
2017-Sep-05 15:30N 34°40' E 135°23'0 0.0
2017-Sep-05 15:00N 34°40' E 135°23'0 0.0
2017-Sep-05 14:30N 34°40' E 135°23'0 0.0
2017-Sep-05 14:00N 34°40' E 135°23'0 0.0
2017-Sep-05 13:30N 34°40' E 135°23'0 0.0
2017-Sep-05 13:00N 34°40' E 135°23'0 0.1
2017-Sep-05 12:31N 34°40' E 135°23'0 0.0
2017-Sep-05 12:00N 34°40' E 135°23'0 0.0
2017-Sep-05 11:30N 34°40' E 135°23'0 0.0
2017-Sep-05 11:00N 34°40' E 135°23'0 0.0
2017-Sep-05 10:30N 34°40' E 135°23'0 0.0
2017-Sep-05 10:00N 34°40' E 135°23'0 0.0
2017-Sep-05 09:30N 34°40' E 135°23'0 0.0
2017-Sep-05 09:00N 34°40' E 135°23'0 0.0
2017-Sep-05 08:30N 34°40' E 135°23'0 0.0
2017-Sep-05 08:00N 34°40' E 135°23'0 0.0
2017-Sep-05 07:30N 34°40' E 135°23'0 0.0
2017-Sep-05 07:00N 34°40' E 135°23'2 3.2
2017-Sep-05 06:30N 34°39' E 135°22'612.0
2017-Sep-05 06:00N 34°34' E 135°18'611.8
2017-Sep-05 05:30N 34°29' E 135°13'611.4
2017-Sep-05 05:00N 34°25' E 135°09'711.4
2017-Sep-05 04:25N 34°19' E 135°05'4 9.9
2017-Sep-05 04:00N 34°15' E 135°04'612.2
2017-Sep-05 03:30N 34°10' E 135°06'3 5.5
2017-Sep-05 03:00N 34°07' E 135°07'0 0.0
2017-Sep-05 02:30N 34°07' E 135°07'0 0.0
2017-Sep-05 02:00N 34°07' E 135°07'0 0.0
2017-Sep-05 01:30N 34°07' E 135°07'0 0.1
2017-Sep-05 01:01N 34°07' E 135°07'0 0.7
2017-Sep-05 00:30N 34°07' E 135°08'4 7.2
2017-Sep-05 00:00N 34°10' E 135°05'811.5
2017-Sep-04 23:16N 34°19' E 135°04'612.7
2017-Sep-04 22:46N 34°24' E 135°09'412.7
2017-Sep-04 22:27N 34°27' E 135°12'612.7
2017-Sep-04 22:00N 34°30' E 135°18'510.3
2017-Sep-04 21:29N 34°31' E 135°24'0 0.0
2017-Sep-04 11:43N 34°31' E 135°24'0 0.0
2017-Sep-04 11:30N 34°31' E 135°24'0 0.0
2017-Sep-04 11:00N 34°31' E 135°24'0 0.1
2017-Sep-04 10:13N 34°31' E 135°24'0 0.2
2017-Sep-04 09:58N 34°31' E 135°24'0 0.0
2017-Sep-04 09:29N 34°31' E 135°24'0 0.0
2017-Sep-04 08:59N 34°31' E 135°24'0 0.0
2017-Sep-04 08:30N 34°31' E 135°24'0 0.0
2017-Sep-04 07:56N 34°31' E 135°24'  

Dump ship's entire track history